Lomax, Illinois
Current Conditions -  °F | °C
As of 5:53 PM on Wednesday 22 Oct 2014 (Local Time) from KBRL Reporting Station
Clear Clear  
Wind Chill: 58°   Ceiling: Unl
Heat Index: 58°   Visibility: 10mi
Dew Point: 41°   Wind: 6mph
Humidity: 53%   Direction: 150°SSE
Pressure: 30.19"   Gusts: NA
Location:  40.68°N, 91.07°W
Report Text: KBRL 222253Z AUTO 15005KT 10SM CLR 14/05 A3019 RMK AO2 SLP225 T01440050
Loading
Personal Weather Stations






























Interactive Weather Map
Tropical Storm Tracking
New forecast layout! Learn more

10-Day Weather Forecast

Advertisements
Track Severe Weather on mobile